createdAt,value
2023-03-19T03:01:54.097Z,47.06
2023-03-19T03:04:22.547Z,46.91
2023-03-19T03:06:51.655Z,46.96
2023-03-19T03:09:20.786Z,46.92
2023-03-19T03:11:50.725Z,47.11
2023-03-19T03:14:19.529Z,47.10
2023-03-19T03:16:48.377Z,47.09
2023-03-19T03:19:17.910Z,47.21
2023-03-19T03:21:47.439Z,47.29
2023-03-19T03:24:16.783Z,47.28
2023-03-19T03:26:46.301Z,47.30
2023-03-19T03:29:18.009Z,47.44
2023-03-19T03:31:47.243Z,47.33
2023-03-19T03:34:16.724Z,47.37
2023-03-19T03:36:47.318Z,47.47
2023-03-19T03:39:16.808Z,47.35
2023-03-19T03:41:46.226Z,47.48
2023-03-19T03:44:15.779Z,47.56
2023-03-19T03:46:45.207Z,47.55
2023-03-19T03:49:13.501Z,47.49
2023-03-19T03:51:42.987Z,47.56
2023-03-19T03:54:12.686Z,47.57
2023-03-19T03:56:41.748Z,47.60
2023-03-19T03:59:10.622Z,47.62
2023-03-19T04:01:39.875Z,47.85
2023-03-19T04:04:09.515Z,47.79
2023-03-19T04:06:38.654Z,47.78
2023-03-19T04:09:31.433Z,47.83
2023-03-19T04:12:01.634Z,47.74
2023-03-19T04:14:31.542Z,47.80
2023-03-19T04:17:00.939Z,47.76
2023-03-19T04:19:30.316Z,47.82
2023-03-19T04:22:00.236Z,47.88
2023-03-19T04:24:33.842Z,47.88
2023-03-19T04:27:03.190Z,47.85
2023-03-19T04:29:32.654Z,47.94
2023-03-19T04:32:02.206Z,47.94
2023-03-19T04:34:31.577Z,48.10
2023-03-19T04:37:00.507Z,48.03
2023-03-19T04:39:29.895Z,48.06
2023-03-19T04:41:59.984Z,48.03
2023-03-19T04:44:34.972Z,48.08
2023-03-19T04:47:05.092Z,48.07
2023-03-19T04:49:42.308Z,48.04
2023-03-19T04:52:11.514Z,48.10
2023-03-19T04:54:40.974Z,48.19
2023-03-19T04:57:10.734Z,48.16
2023-03-19T04:59:40.716Z,48.18
2023-03-19T05:02:09.930Z,48.28
2023-03-19T05:04:40.186Z,48.19
2023-03-19T05:07:12.520Z,48.34
2023-03-19T05:09:44.385Z,48.30
2023-03-19T05:12:13.678Z,48.14
2023-03-19T05:14:50.121Z,48.49
2023-03-19T05:17:39.958Z,48.36
2023-03-19T05:20:17.613Z,48.32
2023-03-19T05:22:52.930Z,48.20
2023-03-19T05:25:22.342Z,48.30
2023-03-19T05:27:51.402Z,48.46
2023-03-19T05:30:24.286Z,48.54
2023-03-19T05:32:58.212Z,48.47
2023-03-19T05:35:41.863Z,48.50
2023-03-19T05:38:16.400Z,48.63
2023-03-19T05:40:46.499Z,48.59
2023-03-19T05:43:23.246Z,48.47
2023-03-19T05:45:53.317Z,48.63
2023-03-19T05:48:26.570Z,48.61
2023-03-19T05:50:57.041Z,48.60
2023-03-19T05:53:28.018Z,48.55
2023-03-19T05:56:26.792Z,48.36
2023-03-19T05:59:16.310Z,48.29
2023-03-19T06:01:48.385Z,48.46
2023-03-19T06:04:17.238Z,48.57
2023-03-19T06:06:46.669Z,48.48
2023-03-19T06:09:15.920Z,48.36
2023-03-19T06:11:49.155Z,48.32
2023-03-19T06:14:57.688Z,48.66
2023-03-19T06:17:55.822Z,48.58
2023-03-19T06:20:25.371Z,48.35
2023-03-19T06:22:54.583Z,48.69
2023-03-19T06:25:24.188Z,48.68
2023-03-19T06:27:53.210Z,48.47
2023-03-19T06:30:28.883Z,48.58
2023-03-19T06:33:00.041Z,48.45
2023-03-19T06:35:30.397Z,48.56
2023-03-19T06:37:59.479Z,48.37
2023-03-19T06:40:28.477Z,48.31
2023-03-19T06:42:57.733Z,48.43
2023-03-19T06:45:26.103Z,48.52
2023-03-19T06:47:54.531Z,48.38
2023-03-19T06:50:23.177Z,48.17
2023-03-19T06:52:52.328Z,48.44
2023-03-19T06:55:21.432Z,48.22
2023-03-19T06:57:51.369Z,48.41
2023-03-19T07:00:21.293Z,48.37
2023-03-19T07:02:50.245Z,48.20
2023-03-19T07:05:18.664Z,48.12
2023-03-19T07:07:47.517Z,48.14
2023-03-19T07:10:18.427Z,47.94
2023-03-19T07:12:47.067Z,48.09
2023-03-19T07:15:15.793Z,48.06
2023-03-19T07:17:46.316Z,47.96
2023-03-19T07:20:15.318Z,47.83
2023-03-19T07:22:43.597Z,47.82
2023-03-19T07:25:12.770Z,47.73
2023-03-19T07:27:41.145Z,47.69
2023-03-19T07:30:10.267Z,47.82
2023-03-19T07:32:39.174Z,47.72
2023-03-19T07:35:08.718Z,47.64
2023-03-19T07:37:38.158Z,47.54
2023-03-19T07:40:08.344Z,47.63
2023-03-19T07:42:37.555Z,47.64
2023-03-19T07:45:07.023Z,47.59
2023-03-19T07:47:36.338Z,47.55
2023-03-19T07:50:05.854Z,47.43
2023-03-19T07:52:35.097Z,47.41
2023-03-19T07:55:04.372Z,47.37
2023-03-19T07:57:33.400Z,47.40
2023-03-19T08:00:01.894Z,47.41
2023-03-19T08:02:30.702Z,47.27
2023-03-19T08:05:02.197Z,47.05
2023-03-19T08:07:31.011Z,47.07
2023-03-19T08:09:59.389Z,47.09
2023-03-19T08:12:27.734Z,47.15
2023-03-19T08:14:56.194Z,47.28
2023-03-19T08:17:24.304Z,46.96
2023-03-19T08:19:52.499Z,47.07
2023-03-19T08:22:20.625Z,47.17
2023-03-19T08:24:48.961Z,47.15
2023-03-19T08:27:17.463Z,47.14
2023-03-19T08:29:46.084Z,47.07
2023-03-19T08:32:14.360Z,47.16
2023-03-19T08:34:42.897Z,47.07
2023-03-19T08:37:11.199Z,46.99
2023-03-19T08:39:39.560Z,46.82
2023-03-19T08:42:08.476Z,46.84
2023-03-19T08:44:36.592Z,46.81
2023-03-19T08:47:04.893Z,46.73
2023-03-19T08:49:33.815Z,46.59
2023-03-19T08:52:02.150Z,46.77
2023-03-19T08:54:30.835Z,46.79
2023-03-19T08:57:01.327Z,46.77
2023-03-19T08:59:32.039Z,46.66
2023-03-19T09:02:03.262Z,46.51
2023-03-19T09:04:36.838Z,46.50
2023-03-19T09:07:05.278Z,46.72
2023-03-19T09:09:33.659Z,46.63
2023-03-19T09:12:02.219Z,46.55
2023-03-19T09:14:30.764Z,46.64
2023-03-19T09:16:59.068Z,46.62
2023-03-19T09:19:28.160Z,46.60
2023-03-19T09:21:56.917Z,46.54
2023-03-19T09:24:26.540Z,46.50
2023-03-19T09:26:54.822Z,46.48
2023-03-19T09:29:23.209Z,46.41
2023-03-19T09:31:51.494Z,46.48
2023-03-19T09:34:19.894Z,46.45
2023-03-19T09:36:48.658Z,46.36
2023-03-19T09:39:16.913Z,46.27
2023-03-19T09:42:00.369Z,46.24
2023-03-19T09:44:28.830Z,46.15
2023-03-19T09:47:22.033Z,46.16
2023-03-19T09:49:50.930Z,46.26
2023-03-19T09:52:25.455Z,46.17
2023-03-19T09:54:57.509Z,46.21
2023-03-19T09:57:26.252Z,46.28
2023-03-19T09:59:56.390Z,45.97
2023-03-19T10:02:24.480Z,46.04
2023-03-19T10:04:56.309Z,46.12
2023-03-19T10:07:36.436Z,46.02
2023-03-19T10:10:17.400Z,46.03
2023-03-19T10:12:56.839Z,45.94
2023-03-19T10:15:30.030Z,45.93
2023-03-19T10:18:11.945Z,46.00
2023-03-19T10:20:46.818Z,46.02
2023-03-19T10:23:20.822Z,45.93
2023-03-19T10:25:52.293Z,45.82
2023-03-19T10:28:25.212Z,45.85
2023-03-19T10:30:58.286Z,45.81
2023-03-19T10:33:32.439Z,45.55
2023-03-19T10:36:04.913Z,45.68
2023-03-19T10:38:33.802Z,45.68
2023-03-19T10:41:18.419Z,45.67
2023-03-19T10:43:51.891Z,45.62
2023-03-19T10:46:22.500Z,45.47
2023-03-19T10:48:51.094Z,45.61
2023-03-19T10:51:28.970Z,45.43
2023-03-19T10:54:01.176Z,45.19
2023-03-19T10:56:34.372Z,45.32
2023-03-19T10:59:05.235Z,45.21
2023-03-19T11:01:36.050Z,45.26
2023-03-19T11:04:24.732Z,45.23
2023-03-19T11:06:55.083Z,45.33
2023-03-19T11:09:26.776Z,45.40
2023-03-19T11:11:58.629Z,45.14
2023-03-19T11:14:34.547Z,45.14
2023-03-19T11:17:12.090Z,45.30
2023-03-19T11:19:42.396Z,45.04
2023-03-19T11:22:21.035Z,44.85
2023-03-19T11:24:51.267Z,44.86
2023-03-19T11:27:26.410Z,44.80
2023-03-19T11:29:56.034Z,44.66
2023-03-19T11:32:39.660Z,44.87
2023-03-19T11:35:15.772Z,44.99
2023-03-19T11:37:54.172Z,44.78
2023-03-19T11:40:37.995Z,44.63
2023-03-19T11:43:06.956Z,44.68
2023-03-19T11:45:42.232Z,44.61
2023-03-19T11:48:30.410Z,44.73
2023-03-19T11:51:01.520Z,44.54
2023-03-19T11:53:49.138Z,44.42
2023-03-19T11:56:17.805Z,44.45
2023-03-19T11:59:05.900Z,44.17
2023-03-19T12:01:51.515Z,44.43
2023-03-19T12:04:36.094Z,44.43
2023-03-19T12:07:11.513Z,44.31
2023-03-19T12:09:55.617Z,44.12
2023-03-19T12:12:26.739Z,44.55
2023-03-19T12:15:11.443Z,44.26
2023-03-19T12:17:46.638Z,44.30
2023-03-19T12:20:19.314Z,44.15
2023-03-19T12:23:07.554Z,44.39
2023-03-19T12:25:36.674Z,44.03
2023-03-19T12:28:05.845Z,43.97
2023-03-19T12:30:59.077Z,43.96
2023-03-19T12:33:47.212Z,43.86
2023-03-19T12:36:20.692Z,43.80
2023-03-19T12:38:59.054Z,43.68
2023-03-19T12:41:28.924Z,43.83
2023-03-19T12:44:12.031Z,43.75
2023-03-19T12:46:46.193Z,43.68
2023-03-19T12:49:21.722Z,43.58
2023-03-19T12:51:54.177Z,43.54
2023-03-19T12:54:33.229Z,43.60
2023-03-19T12:57:04.995Z,43.66
2023-03-19T12:59:39.855Z,43.54
2023-03-19T13:02:08.873Z,43.68
2023-03-19T13:04:46.831Z,43.52
2023-03-19T13:07:20.684Z,43.54
2023-03-19T13:09:58.769Z,43.56
2023-03-19T13:12:30.082Z,43.49
2023-03-19T13:14:59.986Z,43.28
2023-03-19T13:17:49.543Z,43.41
2023-03-19T13:20:23.691Z,43.41
2023-03-19T13:22:55.315Z,43.28
2023-03-19T13:25:39.444Z,43.38
2023-03-19T13:28:11.413Z,43.27
2023-03-19T13:30:40.717Z,43.25
2023-03-19T13:33:22.869Z,43.13
2023-03-19T13:35:53.199Z,43.24
2023-03-19T13:38:21.920Z,43.25
2023-03-19T13:40:53.031Z,43.12
2023-03-19T13:43:42.079Z,43.11
2023-03-19T13:46:14.202Z,43.16
2023-03-19T13:48:46.204Z,43.09
2023-03-19T13:51:22.434Z,42.93
2023-03-19T13:54:12.498Z,42.99
2023-03-19T13:57:04.987Z,42.89
2023-03-19T13:59:34.496Z,42.92
2023-03-19T14:02:23.051Z,42.83
2023-03-19T14:04:53.452Z,42.78
2023-03-19T14:07:24.907Z,42.81
2023-03-19T14:10:03.202Z,42.74
2023-03-19T14:12:34.991Z,42.75
2023-03-19T14:15:11.077Z,42.72
2023-03-19T14:17:46.316Z,42.68
2023-03-19T14:20:16.619Z,42.75
2023-03-19T14:23:01.602Z,42.60
2023-03-19T14:25:49.351Z,42.62
2023-03-19T14:28:20.446Z,42.52
2023-03-19T14:30:52.398Z,42.61
2023-03-19T14:33:26.116Z,42.57
2023-03-19T14:35:55.081Z,42.63
2023-03-19T14:38:37.534Z,42.61
2023-03-19T14:41:06.501Z,42.53
2023-03-19T14:43:45.042Z,42.49
2023-03-19T14:46:29.567Z,42.46
2023-03-19T14:49:04.944Z,42.52
2023-03-19T14:51:34.198Z,42.53
2023-03-19T14:54:02.578Z,42.55
2023-03-19T14:56:33.354Z,42.64
2023-03-19T14:59:08.633Z,42.57
2023-03-19T15:01:43.572Z,42.70
2023-03-19T15:04:13.829Z,42.70
2023-03-19T15:06:45.750Z,42.65
2023-03-19T15:09:18.913Z,42.72
2023-03-19T15:11:57.060Z,42.63
2023-03-19T15:14:44.774Z,42.62
2023-03-19T15:17:24.284Z,42.67
2023-03-19T15:19:54.245Z,42.61
2023-03-19T15:22:27.449Z,42.60
2023-03-19T15:25:05.549Z,42.60
2023-03-19T15:27:34.455Z,42.80
2023-03-19T15:30:14.465Z,42.65
2023-03-19T15:32:56.471Z,42.58
2023-03-19T15:35:36.581Z,42.65
2023-03-19T15:38:10.410Z,42.53
2023-03-19T15:40:41.315Z,42.73
2023-03-19T15:43:11.699Z,42.49
2023-03-19T15:45:41.262Z,42.76
2023-03-19T15:48:17.441Z,42.62
2023-03-19T15:50:48.161Z,42.66
2023-03-19T15:53:18.980Z,42.71
2023-03-19T15:55:49.858Z,42.71
2023-03-19T15:58:23.613Z,42.55
2023-03-19T16:00:54.378Z,42.50
2023-03-19T16:03:27.256Z,42.61
2023-03-19T16:06:01.518Z,42.72
2023-03-19T16:08:30.823Z,42.74
2023-03-19T16:11:16.340Z,42.58
2023-03-19T16:13:55.867Z,42.75
2023-03-19T16:16:26.057Z,42.76
2023-03-19T16:18:57.635Z,42.78
2023-03-19T16:21:30.318Z,42.77
2023-03-19T16:24:01.449Z,42.76
2023-03-19T16:26:36.974Z,42.59
2023-03-19T16:29:09.891Z,42.65
2023-03-19T16:31:43.728Z,42.72
2023-03-19T16:34:32.195Z,42.82
2023-03-19T16:37:01.386Z,42.62
2023-03-19T16:39:35.835Z,42.65
2023-03-19T16:42:15.920Z,42.78
2023-03-19T16:44:47.943Z,42.65
2023-03-19T16:47:16.707Z,42.72
2023-03-19T16:49:46.586Z,42.88
2023-03-19T16:52:17.950Z,42.78
2023-03-19T16:54:47.143Z,42.86
2023-03-19T16:57:16.148Z,42.74
2023-03-19T16:59:45.481Z,42.88
2023-03-19T17:02:16.365Z,42.95
2023-03-19T17:04:46.047Z,42.92
2023-03-19T17:07:15.162Z,43.02
2023-03-19T17:09:43.224Z,43.09
2023-03-19T17:12:16.273Z,42.96
2023-03-19T17:14:48.630Z,42.84
2023-03-19T17:17:20.645Z,43.09
2023-03-19T17:19:49.484Z,43.27
2023-03-19T17:22:18.409Z,43.09
2023-03-19T17:24:47.095Z,43.22
2023-03-19T17:27:15.837Z,42.97
2023-03-19T17:29:46.658Z,43.03
2023-03-19T17:32:20.359Z,43.12
2023-03-19T17:34:48.833Z,43.07
2023-03-19T17:37:17.166Z,43.16
2023-03-19T17:39:46.123Z,43.14
2023-03-19T17:42:19.400Z,43.19
2023-03-19T17:44:48.101Z,43.40
2023-03-19T17:47:17.856Z,43.20
2023-03-19T17:49:46.590Z,43.31
2023-03-19T17:52:16.490Z,43.18
2023-03-19T17:54:45.476Z,43.35
2023-03-19T17:57:14.700Z,43.25
2023-03-19T17:59:42.885Z,43.38
2023-03-19T18:02:23.150Z,43.43
2023-03-19T18:04:52.666Z,43.46
2023-03-19T18:07:21.062Z,43.36
2023-03-19T18:09:49.494Z,43.46
2023-03-19T18:12:17.704Z,43.56
2023-03-19T18:14:46.158Z,43.41
2023-03-19T18:17:16.353Z,43.42
2023-03-19T18:19:45.864Z,43.63
2023-03-19T18:22:15.856Z,43.71
2023-03-19T18:24:44.496Z,43.72
2023-03-19T18:27:12.570Z,43.87
2023-03-19T18:29:41.019Z,43.73
2023-03-19T18:32:15.231Z,43.56
2023-03-19T18:34:43.469Z,43.77
2023-03-19T18:37:16.336Z,43.69
2023-03-19T18:39:45.049Z,43.75
2023-03-19T18:42:13.953Z,43.75
2023-03-19T18:44:42.570Z,43.72
2023-03-19T18:47:13.657Z,43.63
2023-03-19T18:49:42.942Z,43.88
2023-03-19T18:52:16.544Z,43.82
2023-03-19T18:54:47.374Z,43.83
2023-03-19T18:57:16.422Z,43.85
2023-03-19T18:59:45.153Z,43.90
2023-03-19T19:02:19.939Z,43.98
2023-03-19T19:04:48.627Z,43.97
2023-03-19T19:07:17.502Z,43.95
2023-03-19T19:09:46.544Z,43.96
2023-03-19T19:12:18.359Z,44.03
2023-03-19T19:14:47.479Z,44.00
2023-03-19T19:17:24.753Z,44.08
2023-03-19T19:19:53.067Z,44.14
2023-03-19T19:22:21.261Z,44.21
2023-03-19T19:24:49.447Z,44.33
2023-03-19T19:27:18.917Z,44.29
2023-03-19T19:29:47.263Z,44.31
2023-03-19T19:32:21.838Z,44.23
2023-03-19T19:34:50.429Z,44.45
2023-03-19T19:37:20.182Z,44.42
2023-03-19T19:39:50.062Z,44.35
2023-03-19T19:42:20.334Z,44.45
2023-03-19T19:44:56.391Z,44.51
2023-03-19T19:47:25.495Z,44.52
2023-03-19T19:49:54.209Z,44.49
2023-03-19T19:52:22.834Z,44.51
2023-03-19T19:54:52.374Z,44.54
2023-03-19T19:57:23.132Z,44.58
2023-03-19T19:59:52.841Z,44.75
2023-03-19T20:02:26.452Z,44.78
2023-03-19T20:04:54.895Z,44.65
2023-03-19T20:07:23.070Z,44.78
2023-03-19T20:09:51.698Z,44.67
2023-03-19T20:12:30.672Z,44.81
2023-03-19T20:14:58.929Z,44.79
2023-03-19T20:17:27.517Z,44.86
2023-03-19T20:19:56.008Z,45.00
2023-03-19T20:22:24.106Z,45.12
2023-03-19T20:24:52.253Z,45.07
2023-03-19T20:27:22.487Z,44.99
2023-03-19T20:29:51.008Z,45.11
2023-03-19T20:32:22.266Z,45.12
2023-03-19T20:34:50.499Z,45.13
2023-03-19T20:37:18.643Z,45.14
2023-03-19T20:39:47.230Z,45.12
2023-03-19T20:42:19.000Z,45.24
2023-03-19T20:44:48.820Z,45.23
2023-03-19T20:47:18.482Z,45.26
2023-03-19T20:49:47.716Z,45.33
2023-03-19T20:52:16.672Z,45.31
2023-03-19T20:54:45.214Z,45.32
2023-03-19T20:57:14.781Z,45.51
2023-03-19T20:59:47.107Z,45.50
2023-03-19T21:02:17.643Z,45.52
2023-03-19T21:04:46.639Z,45.57
2023-03-19T21:07:27.173Z,45.52
2023-03-19T21:09:57.062Z,45.61
2023-03-19T21:12:29.598Z,45.56
2023-03-19T21:14:59.025Z,45.67
2023-03-19T21:17:28.773Z,45.68
2023-03-19T21:19:57.337Z,45.62
2023-03-19T21:22:28.677Z,45.85
2023-03-19T21:25:01.958Z,45.81
2023-03-19T21:27:31.073Z,45.89
2023-03-19T21:29:59.789Z,45.88
2023-03-19T21:32:27.974Z,46.03
2023-03-19T21:34:56.121Z,46.17
2023-03-19T21:37:24.992Z,46.00
2023-03-19T21:39:53.885Z,45.94
2023-03-19T21:42:23.267Z,46.12
2023-03-19T21:44:57.616Z,46.32
2023-03-19T21:47:26.864Z,46.23
2023-03-19T21:49:56.903Z,46.19
2023-03-19T21:52:26.137Z,46.32
2023-03-19T21:54:56.269Z,46.33
2023-03-19T21:57:25.118Z,46.38
2023-03-19T21:59:53.430Z,46.50
2023-03-19T22:02:40.102Z,46.51
2023-03-19T22:05:15.406Z,46.75
2023-03-19T22:07:43.641Z,46.73
2023-03-19T22:10:12.473Z,46.50
2023-03-19T22:12:41.749Z,46.71
2023-03-19T22:15:17.640Z,46.81
2023-03-19T22:17:46.580Z,46.77
2023-03-19T22:20:25.958Z,46.58
2023-03-19T22:22:56.573Z,46.69
2023-03-19T22:25:44.793Z,46.82
2023-03-19T22:28:16.495Z,46.84
2023-03-19T22:30:46.735Z,46.94
2023-03-19T22:33:17.209Z,46.85
2023-03-19T22:35:46.569Z,47.11
2023-03-19T22:38:16.442Z,47.04
2023-03-19T22:40:48.483Z,47.08
2023-03-19T22:43:26.802Z,47.37
2023-03-19T22:45:58.087Z,47.22
2023-03-19T22:48:27.108Z,47.34
2023-03-19T22:50:55.566Z,47.33
2023-03-19T22:53:24.236Z,47.22
2023-03-19T22:55:56.927Z,47.68
2023-03-19T22:58:26.309Z,47.60
2023-03-19T23:00:57.105Z,47.42
2023-03-19T23:03:29.211Z,47.42
2023-03-19T23:06:00.806Z,47.48
2023-03-19T23:08:30.668Z,47.67
2023-03-19T23:10:59.924Z,47.36
2023-03-19T23:13:28.893Z,47.70
2023-03-19T23:16:00.799Z,47.68
2023-03-19T23:18:30.771Z,47.87
2023-03-19T23:21:01.363Z,47.79
2023-03-19T23:23:31.333Z,48.01
2023-03-19T23:26:00.327Z,48.00
2023-03-19T23:28:33.238Z,48.04
2023-03-19T23:31:05.583Z,48.16
2023-03-19T23:33:34.833Z,47.94
2023-03-19T23:36:04.102Z,48.23
2023-03-19T23:38:33.607Z,48.33
2023-03-19T23:41:02.781Z,48.29
2023-03-19T23:43:32.408Z,48.39
2023-03-19T23:46:01.609Z,48.07
2023-03-19T23:48:36.769Z,48.12
2023-03-19T23:51:07.006Z,48.34
2023-03-19T23:53:36.361Z,48.27
2023-03-19T23:56:10.398Z,48.28
2023-03-19T23:58:43.579Z,48.17
